createdAt,value
2017-11-12T00:00:13.571Z,0.60
2017-11-12T00:02:41.234Z,0.67
2017-11-12T00:05:08.867Z,0.70
2017-11-12T00:07:37.309Z,0.70
2017-11-12T00:10:05.021Z,0.80
2017-11-12T00:12:33.429Z,1.70
2017-11-12T00:15:01.908Z,0.60
2017-11-12T00:17:29.584Z,0.80
2017-11-12T00:19:57.245Z,0.70
2017-11-12T00:22:24.959Z,0.60
2017-11-12T00:24:53.377Z,1.90
2017-11-12T00:27:21.048Z,0.60
2017-11-12T00:29:48.707Z,0.90
2017-11-12T00:32:16.352Z,0.60
2017-11-12T00:34:44.018Z,0.67
2017-11-12T00:37:11.997Z,2.00
2017-11-12T00:39:39.682Z,0.70
2017-11-12T00:42:07.403Z,0.90
2017-11-12T00:44:35.127Z,0.60
2017-11-12T00:47:03.539Z,1.30
2017-11-12T00:49:31.165Z,0.70
2017-11-12T00:51:59.596Z,1.40
2017-11-12T00:54:27.225Z,1.13
2017-11-12T00:56:54.887Z,1.67
2017-11-12T00:59:22.553Z,0.70
2017-11-12T01:01:50.254Z,1.80
2017-11-12T01:04:17.945Z,0.80
2017-11-12T01:06:46.357Z,1.10
2017-11-12T01:09:14.041Z,0.90
2017-11-12T01:11:41.762Z,0.50
2017-11-12T01:14:09.528Z,1.30
2017-11-12T01:16:37.192Z,0.60
2017-11-12T01:19:04.900Z,1.50
2017-11-12T01:21:32.545Z,0.60
2017-11-12T01:24:00.209Z,0.87
2017-11-12T01:26:27.970Z,0.70
2017-11-12T01:28:55.588Z,0.50
2017-11-12T01:31:23.248Z,0.60
2017-11-12T01:33:50.875Z,0.60
2017-11-12T01:36:18.638Z,1.00
2017-11-12T01:38:46.323Z,1.83
2017-11-12T01:41:14.773Z,0.60
2017-11-12T01:43:42.463Z,0.70
2017-11-12T01:46:10.157Z,1.00
2017-11-12T01:48:37.908Z,1.13
2017-11-12T01:51:06.356Z,0.97
2017-11-12T01:53:34.034Z,2.40
2017-11-12T01:56:01.846Z,1.20
2017-11-12T01:58:29.575Z,1.60
2017-11-12T02:00:57.268Z,1.40
2017-11-12T02:03:25.846Z,3.10
2017-11-12T02:05:53.512Z,1.70
2017-11-12T02:08:21.193Z,1.87
2017-11-12T02:10:49.643Z,2.20
2017-11-12T02:13:17.310Z,2.40
2017-11-12T02:15:45.048Z,2.50
2017-11-12T02:18:12.787Z,2.87
2017-11-12T02:20:40.571Z,2.30
2017-11-12T02:23:08.369Z,1.80
2017-11-12T02:25:36.074Z,3.47
2017-11-12T02:28:03.804Z,3.10
2017-11-12T02:30:31.519Z,3.60
2017-11-12T02:32:59.268Z,3.30
2017-11-12T02:35:27.062Z,4.00
2017-11-12T02:37:54.848Z,4.13
2017-11-12T02:40:22.599Z,3.30
2017-11-12T02:42:50.284Z,4.00
2017-11-12T02:45:18.790Z,3.70
2017-11-12T02:47:46.609Z,4.37
2017-11-12T02:50:14.396Z,3.50
2017-11-12T02:52:42.160Z,4.60
2017-11-12T02:55:10.714Z,5.60
2017-11-12T02:57:38.518Z,3.40
2017-11-12T03:00:06.258Z,3.27
2017-11-12T03:02:33.983Z,3.60
2017-11-12T03:05:01.653Z,4.53
2017-11-12T03:07:29.345Z,3.60
2017-11-12T03:09:57.828Z,5.33
2017-11-12T03:12:26.241Z,5.30
2017-11-12T03:14:53.951Z,5.10
2017-11-12T03:17:21.630Z,5.23
2017-11-12T03:19:50.059Z,7.83
2017-11-12T03:22:17.744Z,5.90
2017-11-12T03:24:45.406Z,5.93
2017-11-12T03:27:13.593Z,3.97
2017-11-12T03:29:41.295Z,7.60
2017-11-12T03:32:09.005Z,5.17
2017-11-12T03:34:36.649Z,7.43
2017-11-12T03:37:04.309Z,7.37
2017-11-12T03:39:31.940Z,7.70
2017-11-12T03:41:59.605Z,6.90
2017-11-12T03:44:27.288Z,5.10
2017-11-12T03:46:55.018Z,4.97
2017-11-12T03:49:22.747Z,6.47
2017-11-12T03:51:51.196Z,6.60
2017-11-12T03:54:18.894Z,3.57
2017-11-12T03:56:47.285Z,4.93
2017-11-12T03:59:14.990Z,4.97
2017-11-12T04:01:42.665Z,5.30
2017-11-12T04:04:10.356Z,6.50
2017-11-12T04:06:38.809Z,6.50
2017-11-12T04:09:06.467Z,9.27
2017-11-12T04:11:34.156Z,6.83
2017-11-12T04:14:01.795Z,10.80
2017-11-12T04:16:29.480Z,10.17
2017-11-12T04:18:57.134Z,7.03
2017-11-12T04:21:25.604Z,12.60
2017-11-12T04:23:54.066Z,11.10
2017-11-12T04:26:21.725Z,12.07
2017-11-12T04:28:49.405Z,8.30
2017-11-12T04:31:18.601Z,10.60
2017-11-12T04:33:46.422Z,8.50
2017-11-12T04:36:14.058Z,12.40
2017-11-12T04:38:41.697Z,15.40
2017-11-12T04:41:09.391Z,9.87
2017-11-12T04:43:37.049Z,13.40
2017-11-12T04:46:04.734Z,12.20
2017-11-12T04:48:32.396Z,10.67
2017-11-12T04:51:00.073Z,11.17
2017-11-12T04:53:27.704Z,16.03
2017-11-12T04:55:55.384Z,11.70
2017-11-12T04:58:23.097Z,17.87
2017-11-12T05:00:50.854Z,13.57
2017-11-12T05:03:18.550Z,21.83
2017-11-12T05:05:46.212Z,13.33
2017-11-12T05:08:13.922Z,21.40
2017-11-12T05:10:42.364Z,15.27
2017-11-12T05:13:10.054Z,18.77
2017-11-12T05:15:38.468Z,14.50
2017-11-12T05:18:06.140Z,16.87
2017-11-12T05:20:33.771Z,15.20
2017-11-12T05:23:01.461Z,11.80
2017-11-12T05:25:29.134Z,14.67
2017-11-12T05:27:56.769Z,12.93
2017-11-12T05:30:24.523Z,14.77
2017-11-12T05:32:52.171Z,18.63
2017-11-12T05:35:19.849Z,16.77
2017-11-12T05:37:47.612Z,16.67
2017-11-12T05:40:15.274Z,19.63
2017-11-12T05:42:42.954Z,19.17
2017-11-12T05:45:10.781Z,17.30
2017-11-12T05:47:38.440Z,27.67
2017-11-12T05:50:06.117Z,26.27
2017-11-12T05:52:33.797Z,27.87
2017-11-12T05:55:01.434Z,16.83
2017-11-12T05:57:29.099Z,25.17
2017-11-12T05:59:56.758Z,15.87
2017-11-12T06:02:24.513Z,20.87
2017-11-12T06:04:52.142Z,20.23
2017-11-12T06:07:20.743Z,21.13
2017-11-12T06:09:48.448Z,19.83
2017-11-12T06:12:16.204Z,19.53
2017-11-12T06:14:43.957Z,21.10
2017-11-12T06:17:11.582Z,22.77
2017-11-12T06:19:40.115Z,18.13
2017-11-12T06:22:07.803Z,15.37
2017-11-12T06:24:36.285Z,23.03
2017-11-12T06:27:04.729Z,22.93
2017-11-12T06:29:32.433Z,16.33
2017-11-12T06:32:00.826Z,24.30
2017-11-12T06:34:28.529Z,18.77
2017-11-12T06:36:56.235Z,15.20
2017-11-12T06:39:24.717Z,16.03
2017-11-12T06:41:53.139Z,13.23
2017-11-12T06:44:20.845Z,15.67
2017-11-12T06:46:49.270Z,19.90
2017-11-12T06:49:16.909Z,22.90
2017-11-12T06:51:44.603Z,15.17
2017-11-12T06:54:12.249Z,22.90
2017-11-12T06:56:39.910Z,22.93
2017-11-12T06:59:07.606Z,17.63
2017-11-12T07:01:35.318Z,15.83
2017-11-12T07:04:02.957Z,15.50
2017-11-12T07:06:31.399Z,18.50
2017-11-12T07:08:59.031Z,12.33
2017-11-12T07:11:26.709Z,16.33
2017-11-12T07:13:54.347Z,16.37
2017-11-12T07:16:22.264Z,15.20
2017-11-12T07:18:50.013Z,14.43
2017-11-12T07:21:17.639Z,12.90
2017-11-12T07:23:45.318Z,12.53
2017-11-12T07:26:12.948Z,14.30
2017-11-12T07:28:40.768Z,16.13
2017-11-12T07:31:09.174Z,14.00
2017-11-12T07:33:36.884Z,16.03
2017-11-12T07:36:04.523Z,11.53
2017-11-12T07:38:32.173Z,19.50
2017-11-12T07:40:59.861Z,24.43
2017-11-12T07:43:27.510Z,16.47
2017-11-12T07:45:55.164Z,17.93
2017-11-12T07:48:22.917Z,25.80
2017-11-12T07:50:50.713Z,18.33
2017-11-12T07:53:18.364Z,23.27
2017-11-12T07:55:45.986Z,16.80
2017-11-12T07:58:13.646Z,17.17
2017-11-12T08:00:41.277Z,18.50
2017-11-12T08:03:09.750Z,17.67
2017-11-12T08:05:37.428Z,16.47
2017-11-12T08:08:05.932Z,17.30
2017-11-12T08:10:33.626Z,19.40
2017-11-12T08:13:01.311Z,22.07
2017-11-12T08:15:28.972Z,17.70
2017-11-12T08:17:56.630Z,17.40
2017-11-12T08:20:24.275Z,17.13
2017-11-12T08:22:52.013Z,18.07
2017-11-12T08:25:19.654Z,19.53
2017-11-12T08:27:47.325Z,17.00
2017-11-12T08:30:15.035Z,16.60
2017-11-12T08:32:42.688Z,14.93
2017-11-12T08:35:10.448Z,16.90
2017-11-12T08:37:38.123Z,18.53
2017-11-12T08:40:05.846Z,21.53
2017-11-12T08:42:33.543Z,18.00
2017-11-12T08:45:01.297Z,12.20
2017-11-12T08:47:28.934Z,16.23
2017-11-12T08:49:56.583Z,11.67
2017-11-12T08:52:24.310Z,13.53
2017-11-12T08:54:52.709Z,13.47
2017-11-12T08:57:20.377Z,6.97
2017-11-12T08:59:48.058Z,8.70
2017-11-12T09:02:15.760Z,10.43
2017-11-12T09:04:43.459Z,8.67
2017-11-12T09:07:11.217Z,9.30
2017-11-12T09:09:38.935Z,8.77
2017-11-12T09:12:06.715Z,8.50
2017-11-12T09:14:35.201Z,5.13
2017-11-12T09:17:02.905Z,5.63
2017-11-12T09:19:30.594Z,7.80
2017-11-12T09:21:58.266Z,4.03
2017-11-12T09:24:26.677Z,3.93
2017-11-12T09:26:54.388Z,4.70
2017-11-12T09:29:22.201Z,8.37
2017-11-12T09:31:49.946Z,3.60
2017-11-12T09:34:18.416Z,5.20
2017-11-12T09:36:46.824Z,4.33
2017-11-12T09:39:14.577Z,4.70
2017-11-12T09:41:42.274Z,7.27
2017-11-12T09:44:09.973Z,5.27
2017-11-12T09:46:37.876Z,5.10
2017-11-12T09:49:05.565Z,6.53
2017-11-12T09:51:34.432Z,3.50
2017-11-12T09:54:02.905Z,6.80
2017-11-12T09:56:30.614Z,5.70
2017-11-12T09:58:58.300Z,4.20
2017-11-12T10:01:26.782Z,5.00
2017-11-12T10:03:54.410Z,6.93
2017-11-12T10:06:22.123Z,3.90
2017-11-12T10:08:49.788Z,4.37
2017-11-12T10:11:17.504Z,4.40
2017-11-12T10:13:45.116Z,4.10
2017-11-12T10:16:13.349Z,4.27
2017-11-12T10:18:41.755Z,4.00
2017-11-12T10:21:09.439Z,3.93
2017-11-12T10:23:37.098Z,4.40
2017-11-12T10:26:04.786Z,4.13
2017-11-12T10:28:33.211Z,8.63
2017-11-12T10:31:00.899Z,4.10
2017-11-12T10:33:28.592Z,3.30
2017-11-12T10:35:56.254Z,5.90
2017-11-12T10:38:23.969Z,3.83
2017-11-12T10:40:51.617Z,3.47
2017-11-12T10:43:19.303Z,3.57
2017-11-12T10:45:47.173Z,8.07
2017-11-12T10:48:14.801Z,4.43
2017-11-12T10:50:42.465Z,3.20
2017-11-12T10:53:10.123Z,3.13
2017-11-12T10:55:37.914Z,4.43
2017-11-12T10:58:05.574Z,6.53
2017-11-12T11:00:33.232Z,4.90
2017-11-12T11:03:00.994Z,5.40
2017-11-12T11:05:28.728Z,6.60
2017-11-12T11:07:56.383Z,4.07
2017-11-12T11:10:24.019Z,5.37
2017-11-12T11:12:52.581Z,4.80
2017-11-12T11:15:20.205Z,4.67
2017-11-12T11:17:50.993Z,4.30
2017-11-12T11:20:18.643Z,5.30
2017-11-12T11:22:46.296Z,3.70
2017-11-12T11:25:13.974Z,6.17
2017-11-12T11:27:42.422Z,4.50
2017-11-12T11:30:10.076Z,3.93
2017-11-12T11:32:37.715Z,3.57
2017-11-12T11:35:05.596Z,2.80
2017-11-12T11:37:33.278Z,3.40
2017-11-12T11:40:00.943Z,3.30
2017-11-12T11:42:28.588Z,4.70
2017-11-12T11:44:56.235Z,9.60
2017-11-12T11:47:23.952Z,3.47
2017-11-12T11:49:51.605Z,4.80
2017-11-12T11:52:20.028Z,3.70
2017-11-12T11:54:47.708Z,2.03
2017-11-12T11:57:16.827Z,2.50
2017-11-12T11:59:44.713Z,2.67
2017-11-12T12:02:12.444Z,2.00
2017-11-12T12:04:40.130Z,4.13
2017-11-12T12:07:07.877Z,5.30
2017-11-12T12:09:36.418Z,3.30
2017-11-12T12:12:04.125Z,3.47
2017-11-12T12:14:32.656Z,3.03
2017-11-12T12:17:00.392Z,3.47
2017-11-12T12:19:28.096Z,2.13
2017-11-12T12:21:55.789Z,2.20
2017-11-12T12:24:23.569Z,1.73
2017-11-12T12:26:51.322Z,0.90
2017-11-12T12:29:19.000Z,1.40
2017-11-12T12:31:46.685Z,1.43
2017-11-12T12:34:14.405Z,1.10
2017-11-12T12:36:42.194Z,1.27
2017-11-12T12:39:09.920Z,5.13
2017-11-12T12:41:37.806Z,0.73
2017-11-12T12:44:05.492Z,3.43
2017-11-12T12:46:33.215Z,0.80
2017-11-12T12:49:01.673Z,0.70
2017-11-12T12:51:29.354Z,1.20
2017-11-12T12:53:57.243Z,1.00
2017-11-12T12:56:25.529Z,0.90
2017-11-12T12:58:53.436Z,2.53
2017-11-12T13:01:21.137Z,1.63
2017-11-12T13:03:48.813Z,0.90
2017-11-12T13:06:16.796Z,0.60
2017-11-12T13:08:44.544Z,0.60
2017-11-12T13:11:12.304Z,0.63
2017-11-12T13:13:40.799Z,1.10
2017-11-12T13:16:08.466Z,0.80
2017-11-12T13:18:36.155Z,2.80
2017-11-12T13:21:03.810Z,2.10
2017-11-12T13:23:31.485Z,0.70
2017-11-12T13:25:59.906Z,0.70
2017-11-12T13:28:28.443Z,0.80
2017-11-12T13:30:56.140Z,0.60
2017-11-12T13:33:23.883Z,1.47
2017-11-12T13:35:51.836Z,0.80
2017-11-12T13:38:20.435Z,1.00
2017-11-12T13:40:48.918Z,0.60
2017-11-12T13:43:16.708Z,0.90
2017-11-12T13:45:44.445Z,0.60
2017-11-12T13:48:12.109Z,0.80
2017-11-12T13:50:39.854Z,0.60
2017-11-12T13:53:07.481Z,0.60
2017-11-12T13:55:35.084Z,2.37
2017-11-12T13:58:02.758Z,5.40
2017-11-12T14:00:30.461Z,1.27
2017-11-12T14:02:58.118Z,0.60
2017-11-12T14:05:25.808Z,1.20
2017-11-12T14:07:54.267Z,0.90
2017-11-12T14:10:23.009Z,0.57
2017-11-12T14:12:50.705Z,0.90
2017-11-12T14:15:18.389Z,0.63
2017-11-12T14:17:46.050Z,0.60
2017-11-12T14:20:14.457Z,0.70
2017-11-12T14:22:42.268Z,0.60
2017-11-12T14:25:10.127Z,1.33
2017-11-12T14:27:37.779Z,0.80
2017-11-12T14:30:05.473Z,0.60
2017-11-12T14:32:34.068Z,0.80
2017-11-12T14:35:02.516Z,2.03
2017-11-12T14:37:30.155Z,0.67
2017-11-12T14:39:57.918Z,0.70
2017-11-12T14:42:26.172Z,0.90
2017-11-12T14:44:54.279Z,0.80
2017-11-12T14:47:21.932Z,1.70
2017-11-12T14:49:49.669Z,3.60
2017-11-12T14:52:17.329Z,0.70
2017-11-12T14:54:44.990Z,0.60
2017-11-12T14:57:12.700Z,0.60
2017-11-12T14:59:40.982Z,1.37
2017-11-12T15:02:09.522Z,1.90
2017-11-12T15:04:37.437Z,1.97
2017-11-12T15:07:05.921Z,1.23
2017-11-12T15:09:34.350Z,0.60
2017-11-12T15:12:02.031Z,2.30
2017-11-12T15:14:30.501Z,0.70
2017-11-12T15:16:58.981Z,0.60
2017-11-12T15:19:26.731Z,2.20
2017-11-12T15:21:54.497Z,0.90
2017-11-12T15:24:22.167Z,1.80
2017-11-12T15:26:50.010Z,0.97
2017-11-12T15:29:17.628Z,2.20
2017-11-12T15:31:46.122Z,2.67
2017-11-12T15:34:13.775Z,3.33
2017-11-12T15:36:41.616Z,0.80
2017-11-12T15:39:10.016Z,0.60
2017-11-12T15:41:38.487Z,1.03
2017-11-12T15:44:06.148Z,2.23
2017-11-12T15:46:33.820Z,0.80
2017-11-12T15:49:01.559Z,4.50
2017-11-12T15:51:29.973Z,2.70
2017-11-12T15:53:58.396Z,1.63
2017-11-12T15:56:26.047Z,0.80
2017-11-12T15:58:53.777Z,1.13
2017-11-12T16:01:21.474Z,1.00
2017-11-12T16:03:49.779Z,3.10
2017-11-12T16:06:18.258Z,1.80
2017-11-12T16:08:46.636Z,0.80
2017-11-12T16:11:14.313Z,1.13
2017-11-12T16:13:41.969Z,1.43
2017-11-12T16:16:09.632Z,2.00
2017-11-12T16:18:37.297Z,2.57
2017-11-12T16:21:05.052Z,1.97
2017-11-12T16:23:32.838Z,1.87
2017-11-12T16:26:00.539Z,1.03
2017-11-12T16:28:28.255Z,1.30
2017-11-12T16:30:55.968Z,1.00
2017-11-12T16:33:23.648Z,0.90
2017-11-12T16:35:51.374Z,2.30
2017-11-12T16:38:19.234Z,1.10
2017-11-12T16:40:47.729Z,1.30
2017-11-12T16:43:15.465Z,1.20
2017-11-12T16:45:43.157Z,1.37
2017-11-12T16:48:10.953Z,1.07
2017-11-12T16:50:38.650Z,0.80
2017-11-12T16:53:06.391Z,1.50
2017-11-12T16:55:34.119Z,1.07
2017-11-12T16:58:03.177Z,0.90
2017-11-12T17:00:31.030Z,1.97
2017-11-12T17:02:58.772Z,1.20
2017-11-12T17:05:26.424Z,1.20
2017-11-12T17:07:54.090Z,3.10
2017-11-12T17:10:21.781Z,1.43
2017-11-12T17:12:49.448Z,1.10
2017-11-12T17:15:17.862Z,1.40
2017-11-12T17:17:46.309Z,0.97
2017-11-12T17:20:13.985Z,1.40
2017-11-12T17:22:41.682Z,1.50
2017-11-12T17:25:09.290Z,1.37
2017-11-12T17:27:36.966Z,5.87
2017-11-12T17:30:04.612Z,0.97
2017-11-12T17:32:32.274Z,1.87
2017-11-12T17:34:59.901Z,2.33
2017-11-12T17:37:28.054Z,2.60
2017-11-12T17:39:55.725Z,1.17
2017-11-12T17:42:24.222Z,2.07
2017-11-12T17:44:51.905Z,1.50
2017-11-12T17:47:19.566Z,5.23
2017-11-12T17:49:47.251Z,4.30
2017-11-12T17:52:15.638Z,1.30
2017-11-12T17:54:44.232Z,8.10
2017-11-12T17:57:11.857Z,2.30
2017-11-12T17:59:39.496Z,0.90
2017-11-12T18:02:07.262Z,1.10
2017-11-12T18:04:35.070Z,1.70
2017-11-12T18:07:02.794Z,0.80
2017-11-12T18:09:30.877Z,1.20
2017-11-12T18:11:58.716Z,1.17
2017-11-12T18:14:26.509Z,1.20
2017-11-12T18:16:54.344Z,1.10
2017-11-12T18:19:22.131Z,1.70
2017-11-12T18:21:50.161Z,1.97
2017-11-12T18:24:18.064Z,1.50
2017-11-12T18:26:45.903Z,1.37
2017-11-12T18:29:13.833Z,1.40
2017-11-12T18:31:42.113Z,1.60
2017-11-12T18:34:10.246Z,1.20
2017-11-12T18:36:38.941Z,2.17
2017-11-12T18:39:07.505Z,2.03
2017-11-12T18:41:35.300Z,2.30
2017-11-12T18:44:03.158Z,1.80
2017-11-12T18:46:31.609Z,2.40
2017-11-12T18:48:59.330Z,2.47
2017-11-12T18:51:27.605Z,2.57
2017-11-12T18:53:55.414Z,2.23
2017-11-12T18:56:28.378Z,1.73
2017-11-12T18:58:57.730Z,2.43
2017-11-12T19:01:31.067Z,2.30
2017-11-12T19:07:11.327Z,2.90
2017-11-12T19:09:39.126Z,2.70
2017-11-12T19:12:10.378Z,2.90
2017-11-12T19:14:38.321Z,3.10
2017-11-12T19:17:08.763Z,2.70
2017-11-12T19:19:37.289Z,2.43
2017-11-12T19:22:05.808Z,3.50
2017-11-12T19:24:39.306Z,3.63
2017-11-12T19:27:10.747Z,4.30
2017-11-12T19:29:42.098Z,3.43
2017-11-12T19:32:09.833Z,4.00
2017-11-12T19:34:37.561Z,3.77
2017-11-12T19:37:06.043Z,4.60
2017-11-12T19:39:36.149Z,4.33
2017-11-12T19:42:05.573Z,3.50
2017-11-12T19:44:33.409Z,3.60
2017-11-12T19:47:01.202Z,5.20
2017-11-12T19:49:29.041Z,4.70
2017-11-12T19:51:57.628Z,6.00
2017-11-12T19:54:26.075Z,8.70
2017-11-12T19:56:53.808Z,5.23
2017-11-12T19:59:21.579Z,5.13
2017-11-12T20:01:49.381Z,4.77
2017-11-12T20:04:17.249Z,5.27
2017-11-12T20:06:45.823Z,4.80
2017-11-12T20:09:13.522Z,6.10
2017-11-12T20:11:41.276Z,5.93
2017-11-12T20:14:09.209Z,5.53
2017-11-12T20:16:37.268Z,4.80
2017-11-12T20:19:05.224Z,5.23
2017-11-12T20:21:33.025Z,5.73
2017-11-12T20:24:01.597Z,5.70
2017-11-12T20:26:29.347Z,6.03
2017-11-12T20:28:57.233Z,5.63
2017-11-12T20:31:25.677Z,8.03
2017-11-12T20:33:53.470Z,6.00
2017-11-12T20:36:22.022Z,7.00
2017-11-12T20:38:49.808Z,7.30
2017-11-12T20:41:17.536Z,6.50
2017-11-12T20:43:45.363Z,5.40
2017-11-12T20:46:13.246Z,5.57
2017-11-12T20:48:40.998Z,5.20
2017-11-12T20:51:09.694Z,5.50
2017-11-12T20:53:37.446Z,6.30
2017-11-12T20:56:05.270Z,6.90
2017-11-12T20:58:33.716Z,5.73
2017-11-12T21:01:01.918Z,6.13
2017-11-12T21:03:31.287Z,7.47
2017-11-12T21:06:01.585Z,5.13
2017-11-12T21:08:29.246Z,10.20
2017-11-12T21:10:56.940Z,5.57
2017-11-12T21:13:24.633Z,5.80
2017-11-12T21:15:53.118Z,8.90
2017-11-12T21:18:21.532Z,9.27
2017-11-12T21:23:55.128Z,9.67
2017-11-12T21:26:23.074Z,4.60
2017-11-12T21:28:54.089Z,4.70
2017-11-12T21:31:25.373Z,5.07
2017-11-12T21:34:00.759Z,5.77
2017-11-12T21:36:44.254Z,4.70
2017-11-12T21:39:12.386Z,5.80
2017-11-12T21:41:40.837Z,6.67
2017-11-12T21:44:09.481Z,4.87
2017-11-12T21:46:37.262Z,4.97
2017-11-12T21:49:05.064Z,5.13
2017-11-12T21:51:32.709Z,7.03
2017-11-12T21:54:00.473Z,6.47
2017-11-12T21:56:28.201Z,6.30
2017-11-12T21:58:56.148Z,8.27
2017-11-12T22:01:24.816Z,6.83
2017-11-12T22:03:53.300Z,5.57
2017-11-12T22:06:20.947Z,5.90
2017-11-12T22:08:48.707Z,6.30
2017-11-12T22:11:17.128Z,4.20
2017-11-12T22:13:44.776Z,6.10
2017-11-12T22:16:12.636Z,6.30
2017-11-12T22:18:41.187Z,6.73
2017-11-12T22:21:09.984Z,6.33
2017-11-12T22:23:39.278Z,6.67
2017-11-12T22:26:07.149Z,7.40
2017-11-12T22:28:34.849Z,11.23
2017-11-12T22:31:02.509Z,4.90
2017-11-12T22:33:30.192Z,7.90
2017-11-12T22:35:58.166Z,5.60
2017-11-12T22:38:25.921Z,5.37
2017-11-12T22:40:53.872Z,5.27
2017-11-12T22:43:21.644Z,6.43
2017-11-12T22:45:49.442Z,5.87
2017-11-12T22:48:17.413Z,4.73
2017-11-12T22:50:46.041Z,6.10
2017-11-12T22:53:14.125Z,5.07
2017-11-12T22:55:41.858Z,5.30
2017-11-12T22:58:09.681Z,6.20
2017-11-12T23:00:37.773Z,4.80
2017-11-12T23:03:06.163Z,5.27
2017-11-12T23:05:33.796Z,12.47
2017-11-12T23:08:01.444Z,9.93
2017-11-12T23:10:29.083Z,5.70
2017-11-12T23:12:56.740Z,4.93
2017-11-12T23:15:24.357Z,5.60
2017-11-12T23:17:52.774Z,8.20
2017-11-12T23:20:20.397Z,6.07
2017-11-12T23:22:48.893Z,6.93
2017-11-12T23:25:16.589Z,5.40
2017-11-12T23:27:44.386Z,4.60
2017-11-12T23:30:12.064Z,7.23
2017-11-12T23:32:40.466Z,14.27
2017-11-12T23:35:08.117Z,5.07
2017-11-12T23:37:35.755Z,5.93
2017-11-12T23:40:04.192Z,6.90
2017-11-12T23:42:32.857Z,7.17
2017-11-12T23:45:00.516Z,5.03
2017-11-12T23:47:28.131Z,4.90
2017-11-12T23:49:55.784Z,4.30
2017-11-12T23:52:23.451Z,10.60
2017-11-12T23:54:51.854Z,4.73
2017-11-12T23:57:19.530Z,4.73
2017-11-12T23:59:47.929Z,4.23
